Hovedside
METAR-TAF:

METAR-TAF

Lufthavner :

Norrköping lufthavn

Norrköping, Sverige

breddegrad: 58-35N, lengdegrad: 016-09E, høyde over havet: 34 m

Gjeldene værobservasjon

Denne rapporten ble laget for 25 minutter siden, klokken 03:50 UTC
Vind 11 kt fra Vest-nordvest
Temperatur 3°C
Luftfuktighet 70%
Trykk 1000 hPa
Sikt 10 km eller mer
ingen skyer under 1500 m og ingen bygeskyer

METAR: ESSP 240350Z 30011KT CAVOK 03/M02 Q1000

Tid: 06:15 (04:15 UTC)

Varsel

Denne rapporten ble laget for 45 minutter siden, klokken 03:30 UTC
Varsel gyldig fra 24. klokken 04 UTC til 24. klokken 12 UTC
Vind 12 kt fra Vest-nordvest
Sikt 10 km eller mer
ingen skyer under 1500 m og ingen bygeskyer

TAF: ESSP 240330Z 2404/2412 30012KT CAVOK

Værobservasjoner og værvarsel for over 4000 flyplasser (METAR- og TAF-rapporter).

Tilgjengelige stasjoner er representert av de røde og gule prikkene på kartet.

Hold musepekeren over prikken for å se navnet på stasjonen.

Klikk så for å se værobservasjoner og -varsler.

For å forandre kartet kan du klikke på den grønne knappen med svart kryss for å zoome inn, på den grønne knappen med strek for å zoome ut, eller på de grønne pilene for å se tilstøtende kart.


METAR-TAF: